createdAt,value
2019-02-15T00:01:53.023Z,12.80
2019-02-15T00:04:58.800Z,14.43
2019-02-15T00:08:06.098Z,15.17
2019-02-15T00:11:11.885Z,18.00
2019-02-15T00:14:17.695Z,16.00
2019-02-15T00:17:41.160Z,16.83
2019-02-15T00:20:53.244Z,14.93
2019-02-15T00:23:59.004Z,13.80
2019-02-15T00:27:04.864Z,11.13
2019-02-15T00:30:12.260Z,12.43
2019-02-15T00:33:18.017Z,13.47
2019-02-15T00:36:23.798Z,14.03
2019-02-15T00:39:29.651Z,13.63
2019-02-15T00:42:35.421Z,13.43
2019-02-15T00:45:52.925Z,14.90
2019-02-15T00:48:59.412Z,15.50
2019-02-15T00:52:16.856Z,14.07
2019-02-15T00:55:35.213Z,13.87
2019-02-15T00:59:09.003Z,13.17
2019-02-15T01:02:27.153Z,13.00
2019-02-15T01:05:49.396Z,13.77
2019-02-15T01:09:14.033Z,14.67
2019-02-15T01:12:41.799Z,14.00
2019-02-15T01:15:47.546Z,16.37
2019-02-15T01:18:53.322Z,14.57
2019-02-15T01:21:59.081Z,18.50
2019-02-15T01:25:05.221Z,20.23
2019-02-15T01:28:21.309Z,21.07
2019-02-15T01:31:51.959Z,22.33
2019-02-15T01:35:11.831Z,22.83
2019-02-15T01:38:33.612Z,21.07
2019-02-15T01:42:13.419Z,20.00
2019-02-15T01:45:32.946Z,16.60
2019-02-15T01:48:38.717Z,18.20
2019-02-15T01:51:44.544Z,19.47
2019-02-15T01:54:50.332Z,16.17
2019-02-15T01:57:56.079Z,17.03
2019-02-15T02:01:01.959Z,17.77
2019-02-15T02:04:07.734Z,18.60
2019-02-15T02:07:13.497Z,20.00
2019-02-15T02:10:19.285Z,15.83
2019-02-15T02:13:25.372Z,18.03
2019-02-15T02:16:31.126Z,19.43
2019-02-15T02:19:36.898Z,21.83
2019-02-15T02:22:42.677Z,20.43
2019-02-15T02:25:48.419Z,18.03
2019-02-15T02:28:54.256Z,19.93
2019-02-15T02:32:01.138Z,20.53
2019-02-15T02:35:08.500Z,20.07
2019-02-15T02:38:14.247Z,17.57
2019-02-15T02:41:20.149Z,20.67
2019-02-15T02:44:25.999Z,19.77
2019-02-15T02:47:31.780Z,18.53
2019-02-15T02:50:37.532Z,21.23
2019-02-15T02:53:43.310Z,19.20
2019-02-15T02:56:49.222Z,19.93
2019-02-15T02:59:55.009Z,22.50
2019-02-15T03:03:00.837Z,24.50
2019-02-15T03:06:06.633Z,25.37
2019-02-15T03:09:12.397Z,27.43
2019-02-15T03:12:18.165Z,25.27
2019-02-15T03:15:23.933Z,28.30
2019-02-15T03:18:29.689Z,26.97
2019-02-15T03:21:35.440Z,27.10
2019-02-15T03:24:41.210Z,24.10
2019-02-15T03:27:46.971Z,27.13
2019-02-15T03:30:52.891Z,30.10
2019-02-15T03:33:58.757Z,27.83
2019-02-15T03:37:23.451Z,27.13
2019-02-15T03:40:50.645Z,27.37
2019-02-15T03:43:56.770Z,27.23
2019-02-15T03:47:02.568Z,25.87
2019-02-15T03:50:08.980Z,26.00
2019-02-15T03:53:14.748Z,29.27
2019-02-15T03:56:20.497Z,26.13
2019-02-15T03:59:26.576Z,27.77
2019-02-15T04:02:32.529Z,29.23
2019-02-15T04:05:38.360Z,29.73
2019-02-15T04:08:44.181Z,26.93
2019-02-15T04:11:49.964Z,28.73
2019-02-15T04:14:55.745Z,27.33
2019-02-15T04:18:01.521Z,26.13
2019-02-15T04:21:07.308Z,27.00
2019-02-15T04:24:14.195Z,27.87
2019-02-15T04:27:19.999Z,26.60
2019-02-15T04:30:25.783Z,26.30
2019-02-15T04:33:31.544Z,27.70
2019-02-15T04:36:37.356Z,23.03
2019-02-15T04:39:43.111Z,27.27
2019-02-15T04:42:48.879Z,25.77
2019-02-15T04:45:54.638Z,23.13
2019-02-15T04:49:00.395Z,25.93
2019-02-15T04:52:06.159Z,21.60
2019-02-15T04:55:12.006Z,21.67
2019-02-15T04:58:17.815Z,22.93
2019-02-15T05:01:23.578Z,21.50
2019-02-15T05:04:29.383Z,19.00
2019-02-15T05:07:35.209Z,19.10
2019-02-15T05:10:41.001Z,18.10
2019-02-15T05:13:46.812Z,19.83
2019-02-15T05:16:52.572Z,19.20
2019-02-15T05:19:58.378Z,23.57
2019-02-15T05:23:04.141Z,22.17
2019-02-15T05:26:09.949Z,20.83
2019-02-15T05:29:15.739Z,23.23
2019-02-15T05:32:21.514Z,18.67
2019-02-15T05:35:27.269Z,22.00
2019-02-15T05:38:33.111Z,20.47
2019-02-15T05:41:38.871Z,20.53
2019-02-15T05:44:44.640Z,19.63
2019-02-15T05:47:50.394Z,20.57
2019-02-15T05:50:56.175Z,20.10
2019-02-15T05:54:01.952Z,19.70
2019-02-15T05:57:09.610Z,16.70
2019-02-15T06:00:15.210Z,18.47
2019-02-15T06:03:20.964Z,20.20
2019-02-15T06:06:26.736Z,21.00
2019-02-15T06:09:32.551Z,18.40
2019-02-15T06:12:38.300Z,21.20
2019-02-15T06:15:44.083Z,22.43
2019-02-15T06:18:49.848Z,21.00
2019-02-15T06:21:55.708Z,21.07
2019-02-15T06:25:01.485Z,19.43
2019-02-15T06:28:07.273Z,19.03
2019-02-15T06:31:13.035Z,20.97
2019-02-15T06:34:18.802Z,25.57
2019-02-15T06:37:24.635Z,26.20
2019-02-15T06:40:30.398Z,28.73
2019-02-15T06:43:36.203Z,23.17
2019-02-15T06:46:42.268Z,21.50
2019-02-15T06:49:49.046Z,18.70
2019-02-15T06:52:54.927Z,26.10
2019-02-15T06:56:00.660Z,28.30
2019-02-15T06:59:27.899Z,28.60
2019-02-15T07:02:58.336Z,25.07
2019-02-15T07:06:04.132Z,25.47
2019-02-15T07:09:09.893Z,22.10
2019-02-15T07:12:15.678Z,18.03
2019-02-15T07:15:21.552Z,16.47
2019-02-15T07:18:27.332Z,13.93
2019-02-15T07:21:33.113Z,14.47
2019-02-15T07:24:39.878Z,15.97
2019-02-15T07:27:45.637Z,13.37
2019-02-15T07:30:52.388Z,14.17
2019-02-15T07:33:58.157Z,11.80
2019-02-15T07:37:03.919Z,9.23
2019-02-15T07:40:10.325Z,7.53
2019-02-15T07:43:16.253Z,12.83
2019-02-15T07:46:22.017Z,8.40
2019-02-15T07:49:27.772Z,8.97
2019-02-15T07:52:34.513Z,6.27
2019-02-15T07:55:40.304Z,10.10
2019-02-15T07:58:46.187Z,7.97
2019-02-15T08:01:51.894Z,10.27
2019-02-15T08:04:57.628Z,7.93
2019-02-15T08:08:03.399Z,5.63
2019-02-15T08:11:09.140Z,13.60
2019-02-15T08:14:17.105Z,10.03
2019-02-15T08:17:22.411Z,8.23
2019-02-15T08:20:28.215Z,7.53
2019-02-15T08:23:34.043Z,10.03
2019-02-15T08:26:39.824Z,9.17
2019-02-15T08:29:45.682Z,11.70
2019-02-15T08:32:51.514Z,11.13
2019-02-15T08:35:57.284Z,11.77
2019-02-15T08:39:03.232Z,9.43
2019-02-15T08:42:10.548Z,8.67
2019-02-15T08:45:16.429Z,8.37
2019-02-15T08:48:22.210Z,8.43
2019-02-15T08:51:28.000Z,7.23
2019-02-15T08:54:34.898Z,10.60
2019-02-15T08:57:40.629Z,6.90
2019-02-15T09:00:46.405Z,7.83
2019-02-15T09:03:52.146Z,5.37
2019-02-15T09:06:57.908Z,6.87
2019-02-15T09:10:04.130Z,8.33
2019-02-15T09:13:09.986Z,6.97
2019-02-15T09:16:15.791Z,6.30
2019-02-15T09:19:21.559Z,8.53
2019-02-15T09:22:27.311Z,9.60
2019-02-15T09:25:33.092Z,7.57
2019-02-15T09:28:46.322Z,8.73
2019-02-15T09:31:52.137Z,7.63
2019-02-15T09:34:57.903Z,8.53
2019-02-15T09:38:03.697Z,10.73
2019-02-15T09:41:09.474Z,8.47
2019-02-15T09:44:15.235Z,8.40
2019-02-15T09:47:21.029Z,9.43
2019-02-15T09:50:26.801Z,8.67
2019-02-15T09:53:32.573Z,7.57
2019-02-15T09:56:38.431Z,9.63
2019-02-15T09:59:44.182Z,7.23
2019-02-15T10:02:49.941Z,10.17
2019-02-15T10:05:55.713Z,7.23
2019-02-15T10:09:01.564Z,8.00
2019-02-15T10:12:08.894Z,6.67
2019-02-15T10:15:14.757Z,6.70
2019-02-15T10:18:21.667Z,13.40
2019-02-15T10:21:27.431Z,10.03
2019-02-15T10:24:33.210Z,8.10
2019-02-15T10:27:38.980Z,10.57
2019-02-15T10:30:44.833Z,9.43
2019-02-15T10:33:51.592Z,10.23
2019-02-15T10:36:58.436Z,6.33
2019-02-15T10:40:05.563Z,8.83
2019-02-15T10:43:11.317Z,6.57
2019-02-15T10:46:17.208Z,6.20
2019-02-15T10:49:24.122Z,5.67
2019-02-15T10:52:29.864Z,8.00
2019-02-15T10:55:35.650Z,6.77
2019-02-15T10:58:41.527Z,8.60
2019-02-15T11:01:47.321Z,8.47
2019-02-15T11:04:54.222Z,7.17
2019-02-15T11:08:00.015Z,9.50
2019-02-15T11:11:05.963Z,12.00
2019-02-15T11:14:11.719Z,7.43
2019-02-15T11:17:17.626Z,11.50
2019-02-15T11:20:23.690Z,6.17
2019-02-15T11:23:29.478Z,6.83
2019-02-15T11:26:35.258Z,10.73
2019-02-15T11:29:41.029Z,11.73
2019-02-15T11:32:46.972Z,14.47
2019-02-15T11:35:52.833Z,14.70
2019-02-15T11:38:58.589Z,15.73
2019-02-15T11:42:04.368Z,11.50
2019-02-15T11:45:11.339Z,12.10
2019-02-15T11:48:17.117Z,18.47
2019-02-15T11:51:22.953Z,13.67
2019-02-15T11:54:28.719Z,18.03
2019-02-15T11:57:34.514Z,7.50
2019-02-15T12:00:40.240Z,8.53
2019-02-15T12:03:46.020Z,9.93
2019-02-15T12:06:52.762Z,13.30
2019-02-15T12:09:58.519Z,13.77
2019-02-15T12:13:04.508Z,15.53
2019-02-15T12:16:10.286Z,8.87
2019-02-15T12:19:16.103Z,8.00
2019-02-15T12:22:22.015Z,12.77
2019-02-15T12:25:27.749Z,7.60
2019-02-15T12:28:33.518Z,6.13
2019-02-15T12:31:39.261Z,6.13
2019-02-15T12:34:45.130Z,4.47
2019-02-15T12:37:50.966Z,7.73
2019-02-15T12:40:56.701Z,8.13
2019-02-15T12:44:02.614Z,16.77
2019-02-15T12:47:14.877Z,19.90
2019-02-15T12:50:16.581Z,10.00
2019-02-15T12:53:22.412Z,9.00
2019-02-15T12:56:28.284Z,14.17
2019-02-15T12:59:34.047Z,15.30
2019-02-15T13:02:39.843Z,22.80
2019-02-15T13:05:45.664Z,33.10
2019-02-15T13:08:51.434Z,21.57
2019-02-15T13:11:57.238Z,28.07
2019-02-15T13:15:03.110Z,9.20
2019-02-15T13:18:09.118Z,12.10
2019-02-15T13:21:14.867Z,12.00
2019-02-15T13:24:20.721Z,9.87
2019-02-15T13:27:26.493Z,11.63
2019-02-15T13:30:32.256Z,7.47
2019-02-15T13:33:38.054Z,9.67
2019-02-15T13:36:43.873Z,6.33
2019-02-15T13:39:49.660Z,7.93
2019-02-15T13:42:55.437Z,8.17
2019-02-15T13:46:01.202Z,7.07
2019-02-15T13:49:06.960Z,10.20
2019-02-15T13:52:12.712Z,9.37
2019-02-15T13:55:18.500Z,11.90
2019-02-15T13:58:24.269Z,11.63
2019-02-15T14:01:30.087Z,11.47
2019-02-15T14:04:35.862Z,8.73
2019-02-15T14:07:41.814Z,5.17
2019-02-15T14:10:47.593Z,7.73
2019-02-15T14:13:53.367Z,11.17
2019-02-15T14:16:59.119Z,3.90
2019-02-15T14:20:05.757Z,5.77
2019-02-15T14:23:13.901Z,13.17
2019-02-15T14:26:19.079Z,7.23
2019-02-15T14:29:24.848Z,9.03
2019-02-15T14:32:30.600Z,10.07
2019-02-15T14:35:37.469Z,11.77
2019-02-15T14:38:43.316Z,17.30
2019-02-15T14:41:49.126Z,20.40
2019-02-15T14:44:54.895Z,19.47
2019-02-15T14:48:00.718Z,13.67
2019-02-15T14:51:06.616Z,11.50
2019-02-15T14:54:12.399Z,20.00
2019-02-15T14:57:18.259Z,15.77
2019-02-15T15:00:24.135Z,15.37
2019-02-15T15:03:30.154Z,31.27
2019-02-15T15:06:35.965Z,21.07
2019-02-15T15:09:44.694Z,15.37
2019-02-15T15:12:50.510Z,10.73
2019-02-15T15:15:56.320Z,16.10
2019-02-15T15:19:02.191Z,14.27
2019-02-15T15:22:07.985Z,13.43
2019-02-15T15:25:14.001Z,12.20
2019-02-15T15:28:19.927Z,11.30
2019-02-15T15:31:25.754Z,13.27
2019-02-15T15:34:32.110Z,17.07
2019-02-15T15:37:38.057Z,21.87
2019-02-15T15:40:43.870Z,22.60
2019-02-15T15:43:49.642Z,18.97
2019-02-15T15:46:55.461Z,21.27
2019-02-15T15:50:01.241Z,27.33
2019-02-15T15:53:07.962Z,27.73
2019-02-15T15:56:13.897Z,30.50
2019-02-15T15:59:19.737Z,32.43
2019-02-15T16:02:25.513Z,34.20
2019-02-15T16:05:31.320Z,34.07
2019-02-15T16:08:37.093Z,25.50
2019-02-15T16:11:43.025Z,22.63
2019-02-15T16:14:48.856Z,27.77
2019-02-15T16:17:54.648Z,26.43
2019-02-15T16:21:00.432Z,24.87
2019-02-15T16:24:12.281Z,27.53
2019-02-15T16:27:13.744Z,26.87
2019-02-15T16:30:19.769Z,26.70
2019-02-15T16:33:25.540Z,33.47
2019-02-15T16:36:31.417Z,29.90
2019-02-15T16:39:37.172Z,41.40
2019-02-15T16:42:43.192Z,34.83
2019-02-15T16:45:49.095Z,25.07
2019-02-15T16:48:54.875Z,27.33
2019-02-15T16:52:00.679Z,35.13
2019-02-15T16:55:12.876Z,50.13
2019-02-15T16:58:14.163Z,41.00
2019-02-15T17:01:19.981Z,49.03
2019-02-15T17:04:25.774Z,83.17
2019-02-15T17:07:31.659Z,177.40
2019-02-15T17:10:37.440Z,133.77
2019-02-15T17:13:43.223Z,42.87
2019-02-15T17:16:48.985Z,78.23
2019-02-15T17:19:54.746Z,39.17
2019-02-15T17:23:00.510Z,57.17
2019-02-15T17:26:06.308Z,65.57
2019-02-15T17:29:12.079Z,55.70
2019-02-15T17:32:17.901Z,42.93
2019-02-15T17:35:23.714Z,33.33
2019-02-15T17:38:29.614Z,35.73
2019-02-15T17:41:35.359Z,27.20
2019-02-15T17:44:42.269Z,24.40
2019-02-15T17:47:48.062Z,23.87
2019-02-15T17:50:53.898Z,45.60
2019-02-15T17:53:59.673Z,30.60
2019-02-15T17:57:06.187Z,20.13
2019-02-15T18:00:13.009Z,21.97
2019-02-15T18:03:18.939Z,20.93
2019-02-15T18:06:24.718Z,34.27
2019-02-15T18:09:30.534Z,25.23
2019-02-15T18:12:36.304Z,25.80
2019-02-15T18:15:42.099Z,22.57
2019-02-15T18:18:47.867Z,21.63
2019-02-15T18:21:53.735Z,24.00
2019-02-15T18:24:59.529Z,26.67
2019-02-15T18:28:05.594Z,28.30
2019-02-15T18:31:11.368Z,26.97
2019-02-15T18:34:17.194Z,30.80
2019-02-15T18:37:23.077Z,24.17
2019-02-15T18:40:28.898Z,31.63
2019-02-15T18:43:34.636Z,30.50
2019-02-15T18:46:40.423Z,42.07
2019-02-15T18:49:46.309Z,20.73
2019-02-15T18:52:52.413Z,23.47
2019-02-15T18:55:58.317Z,22.83
2019-02-15T18:59:04.112Z,22.67
2019-02-15T19:02:09.987Z,29.80
2019-02-15T19:05:15.961Z,19.53
2019-02-15T19:08:21.816Z,24.07
2019-02-15T19:11:27.728Z,24.73
2019-02-15T19:14:33.590Z,26.37
2019-02-15T19:17:39.552Z,28.00
2019-02-15T19:20:45.438Z,27.57
2019-02-15T19:23:52.371Z,25.87
2019-02-15T19:26:58.268Z,21.53
2019-02-15T19:30:05.667Z,24.43
2019-02-15T19:33:11.665Z,28.20
2019-02-15T19:36:18.637Z,23.73
2019-02-15T19:39:24.403Z,25.90
2019-02-15T19:42:30.216Z,19.57
2019-02-15T19:45:36.002Z,19.13
2019-02-15T19:48:41.781Z,22.93
2019-02-15T19:51:48.181Z,24.80
2019-02-15T19:54:54.020Z,23.97
2019-02-15T19:57:59.873Z,33.97
2019-02-15T20:01:05.773Z,23.50
2019-02-15T20:04:11.601Z,23.63
2019-02-15T20:07:17.497Z,25.47
2019-02-15T20:10:23.824Z,19.13
2019-02-15T20:13:29.698Z,18.27
2019-02-15T20:16:35.523Z,23.53
2019-02-15T20:19:48.224Z,23.37
2019-02-15T20:22:49.051Z,29.00
2019-02-15T20:25:54.894Z,25.40
2019-02-15T20:29:00.671Z,24.43
2019-02-15T20:32:06.460Z,23.23
2019-02-15T20:35:13.568Z,24.70
2019-02-15T20:38:19.703Z,23.23
2019-02-15T20:41:25.587Z,21.13
2019-02-15T20:44:31.460Z,21.97
2019-02-15T20:47:37.227Z,22.17
2019-02-15T20:50:43.019Z,23.90
2019-02-15T20:53:48.917Z,20.83
2019-02-15T20:56:54.667Z,23.60
2019-02-15T21:00:00.471Z,20.30
2019-02-15T21:03:06.588Z,19.97
2019-02-15T21:06:12.350Z,18.43
2019-02-15T21:09:18.221Z,19.73
2019-02-15T21:12:24.019Z,19.70
2019-02-15T21:15:29.804Z,18.87
2019-02-15T21:18:35.600Z,19.97
2019-02-15T21:21:41.465Z,20.40
2019-02-15T21:24:47.232Z,21.97
2019-02-15T21:27:53.021Z,17.37
2019-02-15T21:30:58.884Z,20.97
2019-02-15T21:34:04.743Z,17.80
2019-02-15T21:37:10.542Z,21.53
2019-02-15T21:40:16.841Z,20.40
2019-02-15T21:43:22.606Z,24.07
2019-02-15T21:46:28.406Z,21.63
2019-02-15T21:49:34.211Z,20.67
2019-02-15T21:52:44.385Z,23.90
2019-02-15T21:55:47.623Z,29.13
2019-02-15T21:58:53.433Z,24.83
2019-02-15T22:01:59.216Z,25.40
2019-02-15T22:05:05.244Z,25.33
2019-02-15T22:08:11.015Z,25.40
2019-02-15T22:11:16.864Z,22.53
2019-02-15T22:14:22.655Z,22.90
2019-02-15T22:17:28.460Z,23.90
2019-02-15T22:20:34.217Z,22.23
2019-02-15T22:23:39.963Z,23.93
2019-02-15T22:26:45.746Z,21.43
2019-02-15T22:29:51.462Z,20.60
2019-02-15T22:32:57.234Z,21.87
2019-02-15T22:36:02.996Z,23.37
2019-02-15T22:39:08.924Z,18.70
2019-02-15T22:42:15.037Z,19.37
2019-02-15T22:45:20.919Z,22.97
2019-02-15T22:48:26.690Z,23.00
2019-02-15T22:51:32.475Z,20.20
2019-02-15T22:54:38.268Z,29.60
2019-02-15T22:57:44.046Z,21.30
2019-02-15T23:00:57.356Z,24.00
2019-02-15T23:04:03.380Z,20.23
2019-02-15T23:07:09.166Z,19.43
2019-02-15T23:10:15.057Z,19.17
2019-02-15T23:13:20.963Z,19.57
2019-02-15T23:16:26.738Z,18.70
2019-02-15T23:19:32.517Z,20.93
2019-02-15T23:22:38.327Z,18.77
2019-02-15T23:25:44.091Z,20.93
2019-02-15T23:28:49.874Z,21.57
2019-02-15T23:31:55.641Z,20.67
2019-02-15T23:35:01.399Z,23.43
2019-02-15T23:38:07.178Z,25.10
2019-02-15T23:41:13.975Z,32.67
2019-02-15T23:44:19.816Z,27.43
2019-02-15T23:47:25.593Z,22.10
2019-02-15T23:50:31.390Z,26.90
2019-02-15T23:53:37.171Z,23.93
2019-02-15T23:56:42.952Z,23.33
2019-02-15T23:59:48.821Z,22.43
